Time;durP1;ratioP1;P1;durP2;ratioP2;P2;SDS_P1;SDS_P2;PMS_P1;PMS_P2;Temp;Humidity;BMP_temperature;BMP_pressure;BME280_temperature;BME280_humidity;BME280_pressure;Samples;Min_cycle;Max_cycle;Signal;HPM_P1;HPM_P2
2023/01/07 00:01:37;;;;;;;8.30;6.03;;;;;;;;;;5093659;28;20441;-74
2023/01/07 00:04:05;;;;;;;7.27;5.47;;;;;;;;;;5093897;28;20907;-73
2023/01/07 00:06:33;;;;;;;6.37;5.40;;;;;;;;;;5093680;28;20486;-73
2023/01/07 00:09:01;;;;;;;9.03;5.23;;;;;;;;;;5093607;28;20963;-74
2023/01/07 00:11:29;;;;;;;7.60;5.13;;;;;;;;;;5093387;28;20462;-74
2023/01/07 00:13:58;;;;;;;5.87;4.70;;;;;;;;;;5093531;28;20461;-74
2023/01/07 00:16:26;;;;;;;6.77;5.47;;;;;;;;;;5093744;28;20443;-73
2023/01/07 00:18:54;;;;;;;9.87;5.73;;;;;;;;;;5093368;28;20475;-73
2023/01/07 00:21:21;;;;;;;7.97;6.40;;;;;;;;;;5093272;28;20443;-74
2023/01/07 00:23:49;;;;;;;6.60;5.47;;;;;;;;;;5093662;28;20454;-74
2023/01/07 00:26:17;;;;;;;5.87;5.20;;;;;;;;;;5093547;28;21015;-73
2023/01/07 00:28:44;;;;;;;6.47;5.10;;;;;;;;;;5093534;28;20467;-74
2023/01/07 00:31:14;;;;;;;10.37;6.53;;;;;;;;;;5092904;28;20455;-74
2023/01/07 00:33:50;;;;;;;7.03;6.10;;;;;;;;;;5093388;28;20900;-74
2023/01/07 00:36:17;;;;;;;8.03;5.40;;;;;;;;;;5093138;28;20430;-74
2023/01/07 00:38:44;;;;;;;7.33;5.30;;;;;;;;;;5093094;28;20467;-73
2023/01/07 00:41:12;;;;;;;9.77;5.73;;;;;;;;;;5093146;28;20454;-74
2023/01/07 00:43:39;;;;;;;7.10;5.60;;;;;;;;;;5093043;28;20458;-73
2023/01/07 00:46:06;;;;;;;8.37;6.00;;;;;;;;;;5092954;28;20482;-74
2023/01/07 00:48:34;;;;;;;9.47;6.63;;;;;;;;;;5092899;28;20475;-74
2023/01/07 00:51:01;;;;;;;6.40;5.57;;;;;;;;;;5093305;28;20451;-74
2023/01/07 00:53:29;;;;;;;6.33;4.63;;;;;;;;;;5093295;28;20951;-74
2023/01/07 00:55:56;;;;;;;5.37;4.60;;;;;;;;;;5093143;28;20471;-73
2023/01/07 00:58:24;;;;;;;7.03;4.50;;;;;;;;;;5092829;28;20470;-73
2023/01/07 01:00:54;;;;;;;7.20;4.50;;;;;;;;;;5092596;28;20457;-73
2023/01/07 01:03:21;;;;;;;6.20;4.33;;;;;;;;;;5093891;28;20438;-75
2023/01/07 01:05:50;;;;;;;6.37;4.57;;;;;;;;;;5095842;28;20497;-73
2023/01/07 01:08:17;;;;;;;5.60;4.60;;;;;;;;;;5097256;28;20470;-73
2023/01/07 01:10:45;;;;;;;6.03;4.40;;;;;;;;;;5096970;28;20451;-73
2023/01/07 01:13:13;;;;;;;7.40;4.67;;;;;;;;;;5097239;28;20938;-73
2023/01/07 01:15:42;;;;;;;7.70;5.60;;;;;;;;;;5096934;28;20935;-73
2023/01/07 01:18:09;;;;;;;8.30;5.20;;;;;;;;;;5096976;28;20467;-74
2023/01/07 01:20:37;;;;;;;7.10;4.90;;;;;;;;;;5097193;28;20447;-73
2023/01/07 01:23:05;;;;;;;7.37;4.80;;;;;;;;;;5097079;28;20862;-74
2023/01/07 01:25:33;;;;;;;6.20;5.10;;;;;;;;;;5096511;28;20478;-74
2023/01/07 01:28:00;;;;;;;4.83;4.27;;;;;;;;;;5096567;28;20481;-74
2023/01/07 01:30:27;;;;;;;5.67;4.97;;;;;;;;;;5095067;28;20452;-74
2023/01/07 01:32:54;;;;;;;5.67;5.07;;;;;;;;;;5096941;28;20431;-73
2023/01/07 01:35:21;;;;;;;6.80;5.43;;;;;;;;;;5096140;28;20450;-73
2023/01/07 01:37:48;;;;;;;7.50;4.80;;;;;;;;;;5096443;28;20477;-73
2023/01/07 01:40:16;;;;;;;4.47;3.63;;;;;;;;;;5096312;28;20454;-73
2023/01/07 01:42:43;;;;;;;4.90;4.40;;;;;;;;;;5096028;28;20469;-73
2023/01/07 01:45:12;;;;;;;4.73;4.30;;;;;;;;;;5095737;28;20459;-74
2023/01/07 01:47:41;;;;;;;5.80;4.43;;;;;;;;;;5095976;28;20454;-73
2023/01/07 01:50:13;;;;;;;5.87;4.47;;;;;;;;;;5096498;28;20438;-73
2023/01/07 01:52:43;;;;;;;4.40;4.00;;;;;;;;;;5096479;28;20812;-73
2023/01/07 01:55:11;;;;;;;6.70;4.80;;;;;;;;;;5095966;28;20461;-73
2023/01/07 01:57:40;;;;;;;8.23;4.20;;;;;;;;;;5096260;28;20450;-74
2023/01/07 02:00:08;;;;;;;5.67;4.87;;;;;;;;;;5096285;28;20781;-73
2023/01/07 02:02:40;;;;;;;5.57;4.47;;;;;;;;;;5096361;28;20441;-73
2023/01/07 02:05:08;;;;;;;5.70;4.40;;;;;;;;;;5095960;28;20442;-73
2023/01/07 02:07:35;;;;;;;4.27;3.87;;;;;;;;;;5095793;28;20439;-73
2023/01/07 02:10:10;;;;;;;10.27;4.40;;;;;;;;;;5095731;28;20447;-73
2023/01/07 02:12:43;;;;;;;9.60;6.67;;;;;;;;;;5096082;28;20438;-73
2023/01/07 02:15:12;;;;;;;8.90;6.43;;;;;;;;;;5095424;28;20439;-73
2023/01/07 02:18:00;;;;;;;7.17;5.57;;;;;;;;;;5095916;28;20465;-73
2023/01/07 02:20:34;;;;;;;5.60;4.90;;;;;;;;;;5090690;28;20466;-74
2023/01/07 02:23:13;;;;;;;5.47;4.17;;;;;;;;;;5095813;28;20903;-74
2023/01/07 02:26:05;;;;;;;4.93;4.40;;;;;;;;;;5095116;28;20483;-73
2023/01/07 02:28:44;;;;;;;5.10;4.10;;;;;;;;;;5095506;28;20834;-74
2023/01/07 02:31:33;;;;;;;20.07;11.43;;;;;;;;;;5094127;28;20454;-74
2023/01/07 02:34:05;;;;;;;7.00;5.97;;;;;;;;;;5095380;28;20451;-74
2023/01/07 02:36:45;;;;;;;5.83;4.77;;;;;;;;;;5095798;28;20431;-73
2023/01/07 02:39:19;;;;;;;7.03;5.30;;;;;;;;;;5095559;28;20974;-73
2023/01/07 02:41:50;;;;;;;6.13;5.00;;;;;;;;;;5095737;28;20439;-74
2023/01/07 02:44:24;;;;;;;4.57;4.00;;;;;;;;;;5095000;28;20458;-74
2023/01/07 02:46:53;;;;;;;6.57;4.93;;;;;;;;;;5095121;28;20561;-74
2023/01/07 02:49:22;;;;;;;5.33;4.00;;;;;;;;;;5095243;28;20470;-74
2023/01/07 02:51:50;;;;;;;6.43;4.90;;;;;;;;;;5095190;28;20454;-74
2023/01/07 02:54:20;;;;;;;4.87;4.40;;;;;;;;;;5095061;28;20959;-74
2023/01/07 02:56:58;;;;;;;8.03;5.87;;;;;;;;;;5095000;28;20857;-73
2023/01/07 02:59:40;;;;;;;7.23;5.90;;;;;;;;;;5093984;28;21038;-74
2023/01/07 03:02:20;;;;;;;6.03;4.87;;;;;;;;;;5092532;28;20459;-74
2023/01/07 03:04:59;;;;;;;4.20;3.80;;;;;;;;;;5094399;28;20830;-74
2023/01/07 03:07:36;;;;;;;9.23;4.37;;;;;;;;;;5094945;28;20494;-74
2023/01/07 03:10:06;;;;;;;5.60;4.63;;;;;;;;;;5094460;28;20822;-74
2023/01/07 03:12:35;;;;;;;4.67;4.20;;;;;;;;;;5094896;28;20439;-73
2023/01/07 03:15:05;;;;;;;5.73;3.97;;;;;;;;;;5094653;28;20447;-73
2023/01/07 03:17:35;;;;;;;6.17;3.87;;;;;;;;;;5094588;28;20447;-73
2023/01/07 03:20:04;;;;;;;4.93;4.40;;;;;;;;;;5094459;28;20439;-73
2023/01/07 03:22:32;;;;;;;5.27;4.40;;;;;;;;;;5094339;28;20455;-74
2023/01/07 03:25:00;;;;;;;5.40;4.20;;;;;;;;;;5094346;28;20459;-73
2023/01/07 03:27:28;;;;;;;6.70;4.17;;;;;;;;;;5093319;28;20482;-73
2023/01/07 03:29:56;;;;;;;5.10;4.57;;;;;;;;;;5094129;28;20936;-73
2023/01/07 03:32:25;;;;;;;10.63;7.33;;;;;;;;;;5094371;28;20462;-73
2023/01/07 03:34:52;;;;;;;6.30;5.50;;;;;;;;;;5094383;28;20451;-73
2023/01/07 03:37:22;;;;;;;5.40;4.17;;;;;;;;;;5094141;28;20453;-73
2023/01/07 03:39:50;;;;;;;5.60;4.20;;;;;;;;;;5094031;28;20975;-73
2023/01/07 03:42:39;;;;;;;5.40;4.50;;;;;;;;;;5093949;28;20464;-73
2023/01/07 03:45:08;;;;;;;5.40;4.87;;;;;;;;;;5093796;28;20466;-73
2023/01/07 03:47:35;;;;;;;4.23;3.80;;;;;;;;;;5093631;28;20487;-73
2023/01/07 03:50:02;;;;;;;7.03;4.63;;;;;;;;;;5094184;28;20442;-73
2023/01/07 03:52:31;;;;;;;5.23;4.63;;;;;;;;;;5093701;28;20451;-73
2023/01/07 03:54:58;;;;;;;6.93;4.67;;;;;;;;;;5093764;28;20450;-73
2023/01/07 03:57:25;;;;;;;5.90;4.50;;;;;;;;;;5093926;28;20449;-73
2023/01/07 03:59:52;;;;;;;7.23;4.57;;;;;;;;;;5093665;28;20438;-73
2023/01/07 04:02:19;;;;;;;12.03;7.33;;;;;;;;;;5094019;28;20453;-73
2023/01/07 04:04:46;;;;;;;5.60;4.80;;;;;;;;;;5093453;28;20447;-73
2023/01/07 04:07:13;;;;;;;5.00;4.23;;;;;;;;;;5093763;28;20489;-73
2023/01/07 04:09:42;;;;;;;5.00;4.47;;;;;;;;;;5093493;28;20467;-74
2023/01/07 04:12:09;;;;;;;6.53;4.03;;;;;;;;;;5093541;28;20971;-73
2023/01/07 04:14:36;;;;;;;4.10;3.60;;;;;;;;;;5093512;28;20926;-73
2023/01/07 04:17:03;;;;;;;5.33;4.27;;;;;;;;;;5093624;28;20454;-73
2023/01/07 04:19:30;;;;;;;4.67;3.80;;;;;;;;;;5093521;28;20528;-73
2023/01/07 04:21:57;;;;;;;4.80;3.67;;;;;;;;;;5093231;28;20453;-73
2023/01/07 04:24:24;;;;;;;5.70;4.27;;;;;;;;;;5093024;28;20455;-73
2023/01/07 04:26:53;;;;;;;3.97;3.57;;;;;;;;;;5092993;28;20489;-73
2023/01/07 04:29:20;;;;;;;4.60;3.67;;;;;;;;;;5092755;28;20473;-74
2023/01/07 04:31:47;;;;;;;8.23;5.67;;;;;;;;;;5093473;28;20443;-73
2023/01/07 04:34:14;;;;;;;8.60;5.90;;;;;;;;;;5093324;28;20965;-73
2023/01/07 04:36:41;;;;;;;4.90;3.27;;;;;;;;;;5093152;28;20962;-73
2023/01/07 04:39:08;;;;;;;4.90;4.03;;;;;;;;;;5092860;28;20477;-73
2023/01/07 04:41:35;;;;;;;3.67;3.37;;;;;;;;;;5093517;28;20447;-73
2023/01/07 04:44:04;;;;;;;4.60;3.57;;;;;;;;;;5092960;28;20978;-73
2023/01/07 04:46:31;;;;;;;5.20;4.13;;;;;;;;;;5093201;28;20499;-73
2023/01/07 04:48:58;;;;;;;4.70;4.00;;;;;;;;;;5093225;28;20485;-73
2023/01/07 04:51:25;;;;;;;4.70;3.90;;;;;;;;;;5093358;28;20446;-73
2023/01/07 04:53:52;;;;;;;4.27;3.80;;;;;;;;;;5093155;28;20461;-73
2023/01/07 04:56:19;;;;;;;5.27;4.00;;;;;;;;;;5093294;28;20920;-73
2023/01/07 04:58:46;;;;;;;6.83;4.20;;;;;;;;;;5092340;28;20474;-74
2023/01/07 05:01:15;;;;;;;5.30;3.60;;;;;;;;;;5093659;28;20515;-73
2023/01/07 05:03:42;;;;;;;5.73;4.30;;;;;;;;;;5092971;28;20430;-74
2023/01/07 05:06:10;;;;;;;15.17;10.70;;;;;;;;;;5093556;28;20446;-73
2023/01/07 05:08:37;;;;;;;6.30;5.40;;;;;;;;;;5092936;28;20474;-73
2023/01/07 05:11:04;;;;;;;5.70;4.43;;;;;;;;;;5092770;28;20450;-73
2023/01/07 05:13:34;;;;;;;4.63;3.80;;;;;;;;;;5092842;28;20454;-73
2023/01/07 05:16:01;;;;;;;5.73;3.70;;;;;;;;;;5092679;28;20458;-73
2023/01/07 05:18:29;;;;;;;4.40;4.00;;;;;;;;;;5092693;28;20508;-73
2023/01/07 05:20:56;;;;;;;4.33;3.70;;;;;;;;;;5092661;28;20826;-73
2023/01/07 05:23:23;;;;;;;5.10;3.90;;;;;;;;;;5092693;28;20819;-74
2023/01/07 05:25:50;;;;;;;4.73;3.53;;;;;;;;;;5092441;28;20484;-74
2023/01/07 05:28:17;;;;;;;4.03;3.13;;;;;;;;;;5092789;28;20495;-73
2023/01/07 05:30:44;;;;;;;5.80;3.70;;;;;;;;;;5091414;28;20454;-73
2023/01/07 05:33:12;;;;;;;13.20;8.30;;;;;;;;;;5092732;28;20439;-73
2023/01/07 05:35:40;;;;;;;9.47;6.20;;;;;;;;;;5092930;28;20458;-73
2023/01/07 05:38:07;;;;;;;6.70;3.53;;;;;;;;;;5092659;28;20823;-73
2023/01/07 05:40:34;;;;;;;4.53;3.50;;;;;;;;;;5092877;28;20807;-73
2023/01/07 05:43:01;;;;;;;4.00;3.53;;;;;;;;;;5092486;28;20500;-73
2023/01/07 05:45:28;;;;;;;5.97;4.10;;;;;;;;;;5092435;28;20462;-73
2023/01/07 05:47:55;;;;;;;4.30;3.90;;;;;;;;;;5092384;28;20494;-72
2023/01/07 05:50:22;;;;;;;6.30;4.80;;;;;;;;;;5093077;28;20466;-73
2023/01/07 05:52:52;;;;;;;4.80;3.40;;;;;;;;;;5096050;28;20461;-73
2023/01/07 05:55:19;;;;;;;4.57;3.87;;;;;;;;;;5096007;28;20485;-73
2023/01/07 05:57:46;;;;;;;6.23;5.03;;;;;;;;;;5096076;28;20471;-73
2023/01/07 06:00:14;;;;;;;5.27;4.30;;;;;;;;;;5095497;28;20451;-73
2023/01/07 06:02:41;;;;;;;5.33;4.73;;;;;;;;;;5096350;28;20427;-73
2023/01/07 06:05:09;;;;;;;5.47;4.60;;;;;;;;;;5095766;28;20454;-74
2023/01/07 06:07:36;;;;;;;13.57;8.00;;;;;;;;;;5095987;28;20486;-73
2023/01/07 06:10:05;;;;;;;14.73;8.87;;;;;;;;;;5095787;28;20939;-73
2023/01/07 06:12:32;;;;;;;6.47;5.87;;;;;;;;;;5096005;28;20451;-73
2023/01/07 06:15:00;;;;;;;5.83;5.30;;;;;;;;;;5095859;28;20936;-73
2023/01/07 06:17:27;;;;;;;6.23;5.60;;;;;;;;;;5095869;28;20459;-74
2023/01/07 06:19:54;;;;;;;7.83;5.50;;;;;;;;;;5095569;28;20458;-73
2023/01/07 06:22:21;;;;;;;4.97;4.47;;;;;;;;;;5095989;28;20470;-73
2023/01/07 06:24:48;;;;;;;6.10;4.30;;;;;;;;;;5095320;28;20462;-73
2023/01/07 06:27:16;;;;;;;5.23;4.70;;;;;;;;;;5095836;28;20478;-73
2023/01/07 06:29:43;;;;;;;7.20;5.97;;;;;;;;;;5094656;28;20475;-74
2023/01/07 06:32:10;;;;;;;6.17;4.40;;;;;;;;;;5095632;28;20435;-74
2023/01/07 06:34:38;;;;;;;6.33;4.50;;;;;;;;;;5095293;28;20435;-73
2023/01/07 06:37:05;;;;;;;5.53;4.60;;;;;;;;;;5095236;28;20819;-73
2023/01/07 06:39:32;;;;;;;5.20;4.60;;;;;;;;;;5095127;28;20486;-73
2023/01/07 06:41:59;;;;;;;4.80;4.30;;;;;;;;;;5095104;28;20447;-73
2023/01/07 06:44:27;;;;;;;4.67;4.27;;;;;;;;;;5095133;28;20462;-73
2023/01/07 06:46:54;;;;;;;4.30;3.90;;;;;;;;;;5094803;28;20451;-73
2023/01/07 06:49:21;;;;;;;6.20;4.43;;;;;;;;;;5094856;28;20482;-73
2023/01/07 06:51:48;;;;;;;5.40;4.27;;;;;;;;;;5094844;28;20458;-73
2023/01/07 06:54:15;;;;;;;5.53;4.70;;;;;;;;;;5094492;28;20438;-73
2023/01/07 06:56:43;;;;;;;7.00;6.30;;;;;;;;;;5095074;28;20450;-73
2023/01/07 06:59:10;;;;;;;6.77;6.07;;;;;;;;;;5095105;28;20479;-74
2023/01/07 07:01:39;;;;;;;7.63;6.50;;;;;;;;;;5095021;28;20852;-74
2023/01/07 07:04:06;;;;;;;7.07;6.30;;;;;;;;;;5095128;28;20461;-73
2023/01/07 07:06:35;;;;;;;10.30;7.50;;;;;;;;;;5094799;28;20461;-73
2023/01/07 07:09:02;;;;;;;9.27;7.00;;;;;;;;;;5094573;28;20486;-73
2023/01/07 07:11:29;;;;;;;10.93;6.40;;;;;;;;;;5094993;28;20962;-73
2023/01/07 07:13:56;;;;;;;11.87;7.47;;;;;;;;;;5094630;28;20824;-74
2023/01/07 07:16:23;;;;;;;9.60;6.10;;;;;;;;;;5094989;28;20435;-73
2023/01/07 07:18:51;;;;;;;9.53;6.33;;;;;;;;;;5094802;28;20466;-73
2023/01/07 07:21:19;;;;;;;12.07;7.80;;;;;;;;;;5094520;28;20967;-73
2023/01/07 07:23:46;;;;;;;22.57;8.77;;;;;;;;;;5094687;28;20458;-73
2023/01/07 07:26:13;;;;;;;18.83;13.70;;;;;;;;;;5094749;28;20453;-73
2023/01/07 07:28:41;;;;;;;9.60;7.80;;;;;;;;;;5094493;28;20496;-73
2023/01/07 07:31:09;;;;;;;7.70;6.60;;;;;;;;;;5093808;28;20561;-73
2023/01/07 07:33:37;;;;;;;147.87;45.23;;;;;;;;;;5094220;28;20461;-74
2023/01/07 07:36:05;;;;;;;16.90;9.90;;;;;;;;;;5093951;28;20844;-74
2023/01/07 07:38:32;;;;;;;23.53;14.33;;;;;;;;;;5094090;28;20479;-74
2023/01/07 07:41:01;;;;;;;20.83;12.90;;;;;;;;;;5093928;28;20451;-75
2023/01/07 07:43:28;;;;;;;16.23;11.57;;;;;;;;;;5093500;28;20458;-74
2023/01/07 07:45:55;;;;;;;12.00;9.30;;;;;;;;;;5094003;28;20826;-74
2023/01/07 07:48:22;;;;;;;11.80;9.97;;;;;;;;;;5093719;28;20865;-74
2023/01/07 07:50:51;;;;;;;12.97;8.07;;;;;;;;;;5093098;28;20822;-74
2023/01/07 07:53:20;;;;;;;11.77;8.93;;;;;;;;;;5093908;28;20490;-74
2023/01/07 07:55:47;;;;;;;19.23;13.30;;;;;;;;;;5093250;28;20450;-74
2023/01/07 07:58:14;;;;;;;16.03;10.73;;;;;;;;;;5093679;28;20840;-74
2023/01/07 08:00:41;;;;;;;12.53;8.77;;;;;;;;;;5093787;28;20446;-74
2023/01/07 08:03:09;;;;;;;14.07;10.30;;;;;;;;;;5093627;28;20443;-74
2023/01/07 08:05:36;;;;;;;13.07;7.90;;;;;;;;;;5093194;28;20455;-74
2023/01/07 08:08:03;;;;;;;6.73;5.47;;;;;;;;;;5085756;28;20902;-75
2023/01/07 08:10:32;;;;;;;9.73;5.80;;;;;;;;;;5091681;28;20458;-74
2023/01/07 08:12:59;;;;;;;11.63;5.90;;;;;;;;;;5091751;28;20462;-74
2023/01/07 08:15:26;;;;;;;7.30;4.87;;;;;;;;;;5090988;28;20446;-74
2023/01/07 08:17:58;;;;;;;6.87;4.83;;;;;;;;;;5091899;28;20463;-75
2023/01/07 08:20:25;;;;;;;8.07;6.60;;;;;;;;;;5091908;28;20892;-75
2023/01/07 08:22:52;;;;;;;8.80;7.53;;;;;;;;;;5091287;28;20455;-75
2023/01/07 08:25:19;;;;;;;14.20;9.37;;;;;;;;;;5091677;28;20450;-75
2023/01/07 08:27:48;;;;;;;6.37;5.23;;;;;;;;;;5092195;28;20987;-75
2023/01/07 08:30:15;;;;;;;4.97;4.03;;;;;;;;;;5090451;28;20450;-75
2023/01/07 08:32:42;;;;;;;3.47;3.17;;;;;;;;;;5091888;28;20438;-75
2023/01/07 08:35:10;;;;;;;3.37;2.87;;;;;;;;;;5091507;28;20454;-75
2023/01/07 08:37:37;;;;;;;3.43;3.10;;;;;;;;;;5091363;28;20446;-75
2023/01/07 08:40:05;;;;;;;4.13;3.73;;;;;;;;;;5092329;28;20453;-74
2023/01/07 08:42:32;;;;;;;4.80;3.10;;;;;;;;;;5091849;28;20458;-75
2023/01/07 08:45:01;;;;;;;3.57;3.00;;;;;;;;;;5091205;28;20459;-75
2023/01/07 08:47:29;;;;;;;3.30;2.93;;;;;;;;;;5071461;28;20956;-75
2023/01/07 08:49:56;;;;;;;3.47;3.17;;;;;;;;;;5072209;28;20972;-75
2023/01/07 08:52:24;;;;;;;2.73;2.53;;;;;;;;;;5072261;28;20928;-75
2023/01/07 08:54:51;;;;;;;4.63;4.13;;;;;;;;;;5072264;28;20455;-75
2023/01/07 08:57:18;;;;;;;4.07;3.67;;;;;;;;;;5072029;28;20459;-74
2023/01/07 08:59:46;;;;;;;3.73;3.30;;;;;;;;;;5072054;28;20475;-75
2023/01/07 09:02:15;;;;;;;9.40;5.33;;;;;;;;;;5072552;28;20827;-75
2023/01/07 09:04:42;;;;;;;4.40;4.00;;;;;;;;;;5072425;28;20448;-75
2023/01/07 09:07:09;;;;;;;5.33;4.53;;;;;;;;;;5072080;28;20455;-75
2023/01/07 09:09:37;;;;;;;7.73;5.30;;;;;;;;;;5072041;28;20495;-75
2023/01/07 09:12:04;;;;;;;11.50;7.67;;;;;;;;;;5071875;28;20455;-75
2023/01/07 09:14:31;;;;;;;6.17;4.97;;;;;;;;;;5072145;28;20460;-75
2023/01/07 09:16:58;;;;;;;6.37;3.07;;;;;;;;;;5072067;28;20456;-75
2023/01/07 09:19:26;;;;;;;3.90;3.50;;;;;;;;;;5071723;28;20464;-74
2023/01/07 09:21:53;;;;;;;3.70;3.40;;;;;;;;;;5071793;28;20447;-74
2023/01/07 09:24:20;;;;;;;3.73;3.33;;;;;;;;;;5071684;28;20451;-74
2023/01/07 09:26:47;;;;;;;4.63;3.40;;;;;;;;;;5074967;28;20435;-74
2023/01/07 09:29:15;;;;;;;4.10;3.80;;;;;;;;;;5075388;28;20491;-74
2023/01/07 09:31:42;;;;;;;5.20;3.67;;;;;;;;;;5076340;28;20549;-74
2023/01/07 09:34:09;;;;;;;3.40;3.10;;;;;;;;;;5076549;28;20443;-74
2023/01/07 09:36:37;;;;;;;4.10;3.10;;;;;;;;;;5076022;28;20520;-74
2023/01/07 09:39:04;;;;;;;3.60;3.23;;;;;;;;;;5076205;28;20471;-74
2023/01/07 09:41:37;;;;;;;8.00;5.40;;;;;;;;;;5076451;28;20451;-74
2023/01/07 09:44:10;;;;;;;4.20;3.80;;;;;;;;;;5075967;28;20467;-74
2023/01/07 09:46:37;;;;;;;4.17;3.80;;;;;;;;;;5076457;28;20439;-74
2023/01/07 09:49:04;;;;;;;3.80;3.47;;;;;;;;;;5076107;28;20850;-73
2023/01/07 09:51:34;;;;;;;3.40;3.10;;;;;;;;;;5076255;28;20956;-74
2023/01/07 09:54:04;;;;;;;3.23;2.93;;;;;;;;;;5075904;28;20462;-74
2023/01/07 09:56:32;;;;;;;4.23;3.83;;;;;;;;;;5076112;28;20944;-74
2023/01/07 09:59:00;;;;;;;5.53;4.93;;;;;;;;;;5075990;28;20475;-74
2023/01/07 10:01:29;;;;;;;6.73;3.60;;;;;;;;;;5076063;28;20809;-74
2023/01/07 10:04:03;;;;;;;9.10;3.60;;;;;;;;;;5075941;28;20447;-74
2023/01/07 10:06:33;;;;;;;3.70;3.27;;;;;;;;;;5076060;28;20935;-74
2023/01/07 10:09:07;;;;;;;4.60;3.50;;;;;;;;;;5075379;28;20491;-74
2023/01/07 10:11:39;;;;;;;4.57;3.43;;;;;;;;;;5074139;28;20444;-74
2023/01/07 10:14:21;;;;;;;5.30;4.00;;;;;;;;;;5073948;28;21056;-74
2023/01/07 10:16:51;;;;;;;4.00;3.23;;;;;;;;;;5074373;28;20432;-74
2023/01/07 10:19:20;;;;;;;4.07;3.10;;;;;;;;;;5074215;28;20475;-74
2023/01/07 10:21:51;;;;;;;3.07;2.77;;;;;;;;;;5074571;28;20455;-73
2023/01/07 10:24:21;;;;;;;3.93;3.53;;;;;;;;;;5074353;28;20452;-74
2023/01/07 10:26:49;;;;;;;3.70;3.07;;;;;;;;;;5075505;28;20443;-73
2023/01/07 10:29:19;;;;;;;4.47;3.20;;;;;;;;;;5075130;28;20995;-74
2023/01/07 10:31:49;;;;;;;3.13;2.60;;;;;;;;;;5075592;28;20950;-74
2023/01/07 10:34:17;;;;;;;5.53;3.60;;;;;;;;;;5075367;28;20447;-73
2023/01/07 10:36:49;;;;;;;3.57;3.27;;;;;;;;;;5075243;28;20947;-74
2023/01/07 10:39:18;;;;;;;3.10;2.57;;;;;;;;;;5074979;28;20483;-73
2023/01/07 10:41:55;;;;;;;4.87;3.87;;;;;;;;;;5075202;28;20828;-74
2023/01/07 10:44:43;;;;;;;3.17;2.87;;;;;;;;;;5075004;28;20460;-74
2023/01/07 10:47:15;;;;;;;3.40;3.10;;;;;;;;;;5075424;28;20440;-74
2023/01/07 10:49:56;;;;;;;5.43;2.77;;;;;;;;;;5075070;28;20499;-74
2023/01/07 10:52:28;;;;;;;3.47;3.10;;;;;;;;;;5075265;28;20613;-74
2023/01/07 10:55:01;;;;;;;3.27;2.97;;;;;;;;;;5075145;28;20436;-73
2023/01/07 10:57:31;;;;;;;2.87;2.57;;;;;;;;;;5075049;28;20436;-73
2023/01/07 11:00:02;;;;;;;3.20;2.87;;;;;;;;;;5075096;28;20454;-74
2023/01/07 11:02:29;;;;;;;3.90;3.17;;;;;;;;;;5074849;28;20451;-74
2023/01/07 11:04:57;;;;;;;3.90;2.80;;;;;;;;;;5074469;28;20459;-73
2023/01/07 11:07:29;;;;;;;2.63;2.43;;;;;;;;;;5074474;28;20458;-73
2023/01/07 11:09:56;;;;;;;3.50;2.70;;;;;;;;;;5074470;28;20479;-73
2023/01/07 11:12:27;;;;;;;2.60;2.40;;;;;;;;;;5074439;28;20483;-74
2023/01/07 11:14:56;;;;;;;4.40;3.30;;;;;;;;;;5074606;28;20923;-74
2023/01/07 11:17:29;;;;;;;4.77;2.40;;;;;;;;;;5074678;28;20459;-73
2023/01/07 11:19:56;;;;;;;3.20;2.90;;;;;;;;;;5074752;28;20432;-74
2023/01/07 11:22:31;;;;;;;2.93;2.73;;;;;;;;;;5074340;28;20494;-74
2023/01/07 11:24:59;;;;;;;2.57;2.37;;;;;;;;;;5073956;28;20462;-74
2023/01/07 11:27:27;;;;;;;5.40;2.70;;;;;;;;;;5074393;28;20455;-73
2023/01/07 11:29:59;;;;;;;3.20;2.90;;;;;;;;;;5073781;28;20483;-73
2023/01/07 11:32:28;;;;;;;2.83;2.53;;;;;;;;;;5074481;28;20435;-74
2023/01/07 11:34:57;;;;;;;2.90;2.60;;;;;;;;;;5073910;28;20448;-74
2023/01/07 11:37:35;;;;;;;3.57;3.00;;;;;;;;;;5074240;28;20451;-73
2023/01/07 11:40:03;;;;;;;3.60;2.80;;;;;;;;;;5073975;28;20893;-74
2023/01/07 11:42:39;;;;;;;4.63;3.20;;;;;;;;;;5073846;28;20440;-73
2023/01/07 11:45:14;;;;;;;4.87;3.63;;;;;;;;;;5074130;28;20459;-74
2023/01/07 11:47:45;;;;;;;3.10;2.30;;;;;;;;;;5073813;28;20435;-73
2023/01/07 11:50:21;;;;;;;4.67;3.80;;;;;;;;;;5073629;28;20976;-73
2023/01/07 11:52:55;;;;;;;3.60;3.13;;;;;;;;;;5073849;28;20436;-73
2023/01/07 11:55:22;;;;;;;3.17;2.83;;;;;;;;;;5073551;28;20442;-73
2023/01/07 11:57:53;;;;;;;3.73;3.20;;;;;;;;;;5073888;28;20827;-73
2023/01/07 12:00:21;;;;;;;4.10;3.00;;;;;;;;;;5074002;28;20481;-73
2023/01/07 12:03:00;;;;;;;3.10;2.80;;;;;;;;;;5073432;28;20452;-73
2023/01/07 12:05:27;;;;;;;5.27;4.87;;;;;;;;;;5073632;28;20436;-73
2023/01/07 12:07:56;;;;;;;3.23;2.90;;;;;;;;;;5073306;28;20980;-74
2023/01/07 12:10:34;;;;;;;3.60;3.03;;;;;;;;;;5073339;28;20522;-73
2023/01/07 12:13:03;;;;;;;3.27;2.97;;;;;;;;;;5073687;28;20921;-73
2023/01/07 12:15:36;;;;;;;3.40;3.10;;;;;;;;;;5073136;28;20459;-73
2023/01/07 12:18:20;;;;;;;4.70;3.40;;;;;;;;;;5073534;28;20566;-74
2023/01/07 12:20:58;;;;;;;4.20;3.80;;;;;;;;;;5073507;28;20946;-74
2023/01/07 12:23:28;;;;;;;4.10;3.70;;;;;;;;;;5073313;28;20805;-74
2023/01/07 12:26:02;;;;;;;3.40;2.80;;;;;;;;;;5073486;28;20896;-73
2023/01/07 12:28:40;;;;;;;3.13;2.80;;;;;;;;;;5073380;28;20472;-73
2023/01/07 12:31:14;;;;;;;5.70;2.93;;;;;;;;;;5073039;28;20809;-73
2023/01/07 12:33:47;;;;;;;3.57;3.10;;;;;;;;;;5073043;28;20466;-73
2023/01/07 12:36:16;;;;;;;4.23;3.83;;;;;;;;;;5073402;28;20817;-73
2023/01/07 12:38:47;;;;;;;5.90;4.20;;;;;;;;;;5073313;28;20968;-73
2023/01/07 12:41:18;;;;;;;3.60;3.30;;;;;;;;;;5073449;28;20901;-73
2023/01/07 12:43:49;;;;;;;5.20;3.73;;;;;;;;;;5072874;28;20467;-73
2023/01/07 12:46:19;;;;;;;6.90;4.07;;;;;;;;;;5073211;28;20814;-74
2023/01/07 12:48:50;;;;;;;3.80;3.50;;;;;;;;;;5072955;28;20984;-73
2023/01/07 12:51:20;;;;;;;4.53;4.13;;;;;;;;;;5073173;28;20440;-73
2023/01/07 12:53:49;;;;;;;4.30;3.90;;;;;;;;;;5072623;28;20456;-74
2023/01/07 12:56:18;;;;;;;4.17;3.77;;;;;;;;;;5073254;28;20818;-73
2023/01/07 12:58:47;;;;;;;5.33;4.53;;;;;;;;;;5073151;28;20463;-73
2023/01/07 13:01:19;;;;;;;4.93;4.43;;;;;;;;;;5076647;28;20469;-73
2023/01/07 13:03:52;;;;;;;3.97;3.60;;;;;;;;;;5076974;28;20916;-74
2023/01/07 13:06:22;;;;;;;6.23;4.27;;;;;;;;;;5077090;28;20908;-73
2023/01/07 13:08:53;;;;;;;4.47;4.07;;;;;;;;;;5076618;28;20464;-73
2023/01/07 13:12:41;;;;;;;4.03;3.67;;;;;;;;;;5076996;28;20905;-73
2023/01/07 13:14:17;;;;;;;5.70;4.47;;;;;;;;;;5076454;28;20531;-74
2023/01/07 13:16:44;;;;;;;8.13;6.07;;;;;;;;;;5077028;28;20444;-73
2023/01/07 13:19:12;;;;;;;9.30;5.13;;;;;;;;;;5076871;28;20475;-73
2023/01/07 13:21:40;;;;;;;6.33;5.23;;;;;;;;;;5076896;28;20452;-73
2023/01/07 13:24:15;;;;;;;9.53;5.50;;;;;;;;;;5076433;28;20458;-74
2023/01/07 13:26:46;;;;;;;5.53;4.97;;;;;;;;;;5076744;28;20485;-73
2023/01/07 13:29:22;;;;;;;6.63;5.93;;;;;;;;;;5076381;28;20487;-73
2023/01/07 13:32:03;;;;;;;6.23;5.60;;;;;;;;;;5076805;28;20439;-73
2023/01/07 13:34:38;;;;;;;6.80;6.00;;;;;;;;;;5076779;28;20435;-73
2023/01/07 13:37:14;;;;;;;7.63;6.13;;;;;;;;;;5076509;28;20450;-73
2023/01/07 13:39:50;;;;;;;7.10;5.97;;;;;;;;;;5076099;28;21008;-74
2023/01/07 13:42:26;;;;;;;7.30;6.03;;;;;;;;;;5076664;28;20493;-74
2023/01/07 13:45:01;;;;;;;7.37;5.90;;;;;;;;;;5076339;28;20439;-73
2023/01/07 13:47:35;;;;;;;6.63;5.90;;;;;;;;;;5076352;28;20991;-73
2023/01/07 13:50:04;;;;;;;8.93;6.60;;;;;;;;;;5076425;28;20472;-73
2023/01/07 13:52:32;;;;;;;8.10;6.23;;;;;;;;;;5076405;28;20451;-74
2023/01/07 13:55:00;;;;;;;5.57;4.67;;;;;;;;;;5075654;28;20451;-73
2023/01/07 13:57:42;;;;;;;6.50;5.73;;;;;;;;;;5075852;28;20455;-73
2023/01/07 14:00:24;;;;;;;12.70;7.83;;;;;;;;;;5073642;28;20458;-73
2023/01/07 14:02:55;;;;;;;14.53;8.90;;;;;;;;;;5063449;28;20832;-73
2023/01/07 14:05:27;;;;;;;12.30;7.00;;;;;;;;;;5076100;28;20811;-73
2023/01/07 14:07:56;;;;;;;6.63;5.07;;;;;;;;;;5075997;28;21002;-73
2023/01/07 14:10:26;;;;;;;6.43;4.77;;;;;;;;;;5075922;28;20964;-73
2023/01/07 14:13:11;;;;;;;7.23;5.60;;;;;;;;;;5074943;28;20456;-74
2023/01/07 14:15:59;;;;;;;6.47;5.30;;;;;;;;;;5075380;28;20451;-74
2023/01/07 14:18:41;;;;;;;4.93;4.53;;;;;;;;;;5075859;28;20464;-73
2023/01/07 14:21:17;;;;;;;7.13;4.20;;;;;;;;;;5075811;28;20897;-73
2023/01/07 14:23:50;;;;;;;4.87;4.40;;;;;;;;;;5075593;28;20927;-74
2023/01/07 14:26:21;;;;;;;5.60;5.10;;;;;;;;;;5075424;28;20443;-73
2023/01/07 14:29:12;;;;;;;5.33;4.80;;;;;;;;;;5075609;28;20972;-74
2023/01/07 14:31:40;;;;;;;8.80;7.40;;;;;;;;;;5075123;28;20463;-74
2023/01/07 14:34:09;;;;;;;8.30;6.93;;;;;;;;;;5075310;28;20909;-74
2023/01/07 14:36:55;;;;;;;8.00;6.60;;;;;;;;;;5075180;28;20447;-73
2023/01/07 14:39:33;;;;;;;7.50;5.97;;;;;;;;;;5074838;28;20491;-74
2023/01/07 14:42:18;;;;;;;6.10;5.50;;;;;;;;;;5075256;28;20460;-74
2023/01/07 14:44:46;;;;;;;6.03;5.43;;;;;;;;;;5075158;28;20439;-73
2023/01/07 14:47:13;;;;;;;6.60;5.10;;;;;;;;;;5075087;28;20440;-74
2023/01/07 14:49:58;;;;;;;7.63;6.83;;;;;;;;;;5075025;28;20483;-73
2023/01/07 14:52:44;;;;;;;6.53;5.93;;;;;;;;;;5064935;28;20506;-74
2023/01/07 14:55:25;;;;;;;6.60;5.90;;;;;;;;;;5074606;28;20827;-73
2023/01/07 14:57:59;;;;;;;13.17;6.90;;;;;;;;;;5075023;28;20825;-73